Time;durP1;ratioP1;P1;durP2;ratioP2;P2;SDS_P1;SDS_P2;PMS_P1;PMS_P2;Temp;Humidity;BMP_temperature;BMP_pressure;BME280_temperature;BME280_humidity;BME280_pressure;Samples;Min_cycle;Max_cycle;Signal;HPM_P1;HPM_P2
2023/05/09 05:00:26;;;;;;;16.20;14.70;;;15.30;97.20;;;;;;2121635;23;20239;-69
2023/05/09 05:01:17;;;;;;;14.88;13.48;;;15.30;97.20;;;;;;2121646;23;20180;-69
2023/05/09 05:02:09;;;;;;;15.47;14.03;;;15.30;97.20;;;;;;2121531;23;20173;-69
2023/05/09 05:03:00;;;;;;;14.52;13.25;;;15.40;97.20;;;;;;2121754;23;20491;-69
2023/05/09 05:03:51;;;;;;;15.30;13.87;;;15.40;97.20;;;;;;2121682;23;20177;-69
2023/05/09 05:04:42;;;;;;;14.95;13.60;;;15.40;97.20;;;;;;2121748;23;20187;-69
2023/05/09 05:05:34;;;;;;;15.70;14.30;;;15.50;97.20;;;;;;2121715;23;20176;-69
2023/05/09 05:06:25;;;;;;;15.40;13.80;;;15.50;97.20;;;;;;2121683;23;20176;-69
2023/05/09 05:07:16;;;;;;;14.50;13.20;;;15.50;97.20;;;;;;2121572;23;20642;-69
2023/05/09 05:08:07;;;;;;;14.27;13.00;;;15.50;97.20;;;;;;2121807;23;20181;-69
2023/05/09 05:08:59;;;;;;;14.37;13.07;;;15.50;97.20;;;;;;2121701;23;20172;-67
2023/05/09 05:09:50;;;;;;;15.27;13.95;;;15.50;97.20;;;;;;2121278;23;20180;-68
2023/05/09 05:10:41;;;;;;;14.73;13.43;;;15.60;97.20;;;;;;2121669;23;20192;-67
2023/05/09 05:11:32;;;;;;;15.27;13.80;;;15.60;97.20;;;;;;2121589;23;20181;-68
2023/05/09 05:12:24;;;;;;;14.03;12.83;;;15.60;97.20;;;;;;2121625;23;20177;-68
2023/05/09 05:13:14;;;;;;;15.13;12.80;;;15.60;97.20;;;;;;2121511;23;20518;-67
2023/05/09 05:14:06;;;;;;;14.53;13.23;;;15.60;97.20;;;;;;2121440;23;20169;-67
2023/05/09 05:14:57;;;;;;;13.85;12.65;;;15.60;97.20;;;;;;2120972;23;20408;-67
2023/05/09 05:15:50;;;;;;;14.50;13.20;;;15.70;97.20;;;;;;2121224;23;20177;-68
2023/05/09 05:16:41;;;;;;;15.38;13.88;;;15.70;97.20;;;;;;2121334;23;20544;-68
2023/05/09 05:17:33;;;;;;;13.90;12.63;;;15.70;97.20;;;;;;2121014;23;20169;-68
2023/05/09 05:18:23;;;;;;;13.50;12.30;;;15.70;97.20;;;;;;2121386;23;20628;-68
2023/05/09 05:19:15;;;;;;;14.50;13.20;;;15.80;97.20;;;;;;2121567;23;20500;-68
2023/05/09 05:20:09;;;;;;;13.88;12.70;;;15.80;97.20;;;;;;2121207;23;20188;-68
2023/05/09 05:21:01;;;;;;;14.00;12.80;;;15.90;97.20;;;;;;2121621;23;20197;-68
2023/05/09 05:21:51;;;;;;;14.93;13.63;;;15.90;97.20;;;;;;2121672;23;20522;-68
2023/05/09 05:22:43;;;;;;;15.60;14.07;;;16.00;97.20;;;;;;2121632;23;20545;-68
2023/05/09 05:23:34;;;;;;;15.30;13.90;;;16.00;97.20;;;;;;2121644;23;20180;-68
2023/05/09 05:24:25;;;;;;;15.23;13.80;;;16.00;97.20;;;;;;2121510;23;20197;-68
2023/05/09 05:25:17;;;;;;;16.40;15.00;;;16.10;97.20;;;;;;2121610;23;20180;-68
2023/05/09 05:26:09;;;;;;;15.52;13.98;;;16.10;97.20;;;;;;2121655;23;20177;-68
2023/05/09 05:26:59;;;;;;;15.85;14.45;;;16.10;97.20;;;;;;2121309;23;20259;-68
2023/05/09 05:27:51;;;;;;;17.70;16.10;;;16.10;97.20;;;;;;2121280;23;20313;-68
2023/05/09 05:28:42;;;;;;;17.70;16.10;;;16.20;97.20;;;;;;2121569;23;20205;-68
2023/05/09 05:29:33;;;;;;;16.73;15.23;;;16.20;97.20;;;;;;2121262;23;20199;-68
2023/05/09 05:30:24;;;;;;;16.23;14.75;;;16.20;97.20;;;;;;2121299;23;20181;-68
2023/05/09 05:31:17;;;;;;;15.73;14.33;;;16.20;97.20;;;;;;2121456;23;20163;-68
2023/05/09 05:32:09;;;;;;;15.82;14.43;;;16.20;97.20;;;;;;2121648;23;20181;-68
2023/05/09 05:33:01;;;;;;;16.80;15.15;;;16.20;97.20;;;;;;2121673;23;20176;-67
2023/05/09 05:33:51;;;;;;;15.77;14.38;;;16.20;97.20;;;;;;2121451;23;20184;-68
2023/05/09 05:34:43;;;;;;;15.33;13.93;;;16.20;97.20;;;;;;2121655;23;20358;-67
2023/05/09 05:35:34;;;;;;;17.25;15.50;;;16.20;97.20;;;;;;2121675;23;20632;-68
2023/05/09 05:36:26;;;;;;;14.80;13.40;;;16.20;97.20;;;;;;2121646;23;20617;-67
2023/05/09 05:37:16;;;;;;;15.82;14.32;;;16.20;97.20;;;;;;2121286;23;20412;-67
2023/05/09 05:38:08;;;;;;;16.47;14.90;;;16.20;97.20;;;;;;2121679;23;20179;-68
2023/05/09 05:38:59;;;;;;;16.20;14.80;;;16.20;97.20;;;;;;2121423;23;20188;-67
2023/05/09 05:39:50;;;;;;;16.27;14.70;;;16.20;97.20;;;;;;2121191;23;20621;-68
2023/05/09 05:40:41;;;;;;;15.98;14.48;;;16.20;97.20;;;;;;2121468;23;20204;-68
2023/05/09 05:41:33;;;;;;;17.63;15.83;;;16.20;97.20;;;;;;2121372;23;20620;-68
2023/05/09 05:42:23;;;;;;;17.25;15.65;;;16.20;97.20;;;;;;2121611;23;20188;-67
2023/05/09 05:43:15;;;;;;;17.73;16.13;;;16.20;97.20;;;;;;2121622;23;20179;-67
2023/05/09 05:44:06;;;;;;;18.67;16.95;;;16.30;97.20;;;;;;2121281;23;20187;-67
2023/05/09 05:45:03;;;;;;;19.60;17.50;;;16.30;97.20;;;;;;2121543;23;20183;-67
2023/05/09 05:45:54;;;;;;;20.27;18.25;;;16.30;97.20;;;;;;2121655;23;20169;-67
2023/05/09 05:46:47;;;;;;;20.50;18.52;;;16.40;97.20;;;;;;2121538;23;20191;-68
2023/05/09 05:47:37;;;;;;;21.02;18.98;;;16.40;97.20;;;;;;2121254;23;20181;-68
2023/05/09 05:48:29;;;;;;;19.57;17.87;;;16.40;97.20;;;;;;2121620;23;20169;-68
2023/05/09 05:49:20;;;;;;;21.17;19.13;;;16.40;97.20;;;;;;2121626;23;20176;-68
2023/05/09 05:50:12;;;;;;;21.97;19.97;;;16.40;97.20;;;;;;2121248;23;20177;-67
2023/05/09 05:51:02;;;;;;;21.80;19.65;;;16.40;97.20;;;;;;2121557;23;20641;-68
2023/05/09 05:51:54;;;;;;;20.57;18.60;;;16.40;97.20;;;;;;2121389;23;20643;-67
2023/05/09 05:52:45;;;;;;;20.70;18.70;;;16.40;97.20;;;;;;2121444;23;20191;-66
2023/05/09 05:53:36;;;;;;;20.40;18.50;;;16.40;97.20;;;;;;2121463;23;20177;-67
2023/05/09 05:54:27;;;;;;;21.90;19.65;;;16.50;97.20;;;;;;2119638;23;20180;-67
2023/05/09 05:55:19;;;;;;;20.70;18.80;;;16.50;97.20;;;;;;2119490;23;20661;-67
2023/05/09 05:56:10;;;;;;;23.45;21.33;;;16.50;97.20;;;;;;2120874;23;20184;-67
2023/05/09 05:57:01;;;;;;;22.33;20.13;;;16.50;97.20;;;;;;2121283;23;20655;-67
2023/05/09 05:57:52;;;;;;;23.30;20.90;;;16.50;97.20;;;;;;2121293;23;20301;-67
2023/05/09 05:58:44;;;;;;;25.03;21.77;;;16.60;97.20;;;;;;2121159;23;20243;-66
2023/05/09 05:59:35;;;;;;;23.25;21.02;;;16.60;97.20;;;;;;2120390;23;20719;-67
2023/05/09 06:00:27;;;;;;;23.57;21.13;;;16.60;97.20;;;;;;2121125;23;20510;-67
2023/05/09 06:01:18;;;;;;;24.75;22.30;;;16.70;97.20;;;;;;2121088;23;20506;-67
2023/05/09 06:02:16;;;;;;;22.90;20.73;;;16.70;97.20;;;;;;2121178;23;20192;-66
2023/05/09 06:03:07;;;;;;;24.67;22.17;;;16.70;97.20;;;;;;2121405;23;20161;-67
2023/05/09 06:03:59;;;;;;;24.75;22.35;;;16.80;97.20;;;;;;2121138;23;20526;-67
2023/05/09 06:04:50;;;;;;;24.60;22.35;;;16.70;97.20;;;;;;2120706;23;20197;-67
2023/05/09 06:05:43;;;;;;;25.83;23.20;;;16.70;97.20;;;;;;2121116;23;20176;-67
2023/05/09 06:06:34;;;;;;;26.88;23.42;;;16.70;97.20;;;;;;2121149;23;20239;-67
2023/05/09 06:07:25;;;;;;;26.57;24.10;;;16.70;97.20;;;;;;2121146;23;20177;-67
2023/05/09 06:08:16;;;;;;;26.50;24.10;;;16.70;97.20;;;;;;2121307;23;20184;-67
2023/05/09 06:09:08;;;;;;;25.70;23.40;;;16.70;97.20;;;;;;2121354;23;20176;-67
2023/05/09 06:09:58;;;;;;;26.98;24.38;;;16.70;97.20;;;;;;2120246;23;20368;-67
2023/05/09 06:10:50;;;;;;;25.33;22.83;;;16.70;97.20;;;;;;2120973;23;20244;-67
2023/05/09 06:11:41;;;;;;;26.65;23.90;;;16.70;97.20;;;;;;2121005;23;20184;-67
2023/05/09 06:12:33;;;;;;;26.60;24.10;;;16.70;97.20;;;;;;2121092;23;20624;-67
2023/05/09 06:13:23;;;;;;;28.23;25.30;;;16.70;97.20;;;;;;2121199;23;20259;-67
2023/05/09 06:14:15;;;;;;;25.90;23.10;;;16.70;97.20;;;;;;2121220;23;20235;-67
2023/05/09 06:15:07;;;;;;;25.30;22.73;;;16.70;97.20;;;;;;2120949;23;20188;-67
2023/05/09 06:15:58;;;;;;;26.02;23.52;;;16.70;97.20;;;;;;2121026;23;20179;-67
2023/05/09 06:16:49;;;;;;;26.38;23.85;;;16.70;97.20;;;;;;2121092;23;20180;-67
2023/05/09 06:17:42;;;;;;;25.43;23.00;;;16.70;97.20;;;;;;2121127;23;20168;-67
2023/05/09 06:18:34;;;;;;;25.65;23.27;;;16.70;97.20;;;;;;2121207;23;20177;-67
2023/05/09 06:19:26;;;;;;;25.77;23.17;;;16.70;97.20;;;;;;2121065;23;20168;-67
2023/05/09 06:20:17;;;;;;;25.55;23.10;;;16.70;97.20;;;;;;2120224;23;20191;-67
2023/05/09 06:21:09;;;;;;;25.77;22.60;;;16.70;97.20;;;;;;2121137;23;20179;-67
2023/05/09 06:21:59;;;;;;;25.67;23.15;;;16.70;97.20;;;;;;2120937;23;20430;-67
2023/05/09 06:22:51;;;;;;;26.20;23.47;;;16.70;97.20;;;;;;2121246;23;20173;-67
2023/05/09 06:23:42;;;;;;;25.08;22.58;;;16.70;97.20;;;;;;2121311;23;20181;-67
2023/05/09 06:24:34;;;;;;;26.47;23.97;;;16.80;97.20;;;;;;2120967;23;20208;-67
2023/05/09 06:25:25;;;;;;;25.40;23.10;;;16.80;97.20;;;;;;2121301;23;20176;-67
2023/05/09 06:26:16;;;;;;;25.13;22.73;;;16.80;97.20;;;;;;2121193;23;20168;-67
2023/05/09 06:27:08;;;;;;;25.90;23.00;;;16.80;97.20;;;;;;2121189;23;20188;-67
2023/05/09 06:27:59;;;;;;;25.38;22.92;;;16.80;97.20;;;;;;2121085;23;20696;-67
2023/05/09 06:28:50;;;;;;;23.83;21.27;;;16.90;97.20;;;;;;2121233;23;20181;-67
2023/05/09 06:29:42;;;;;;;25.47;22.97;;;16.90;97.20;;;;;;2120221;23;20176;-67
2023/05/09 06:30:32;;;;;;;25.77;23.10;;;17.00;97.20;;;;;;2120856;23;20200;-67
2023/05/09 06:31:24;;;;;;;25.93;23.23;;;17.00;97.20;;;;;;2120943;23;20172;-67
2023/05/09 06:32:17;;;;;;;25.88;23.13;;;17.10;97.20;;;;;;2120918;23;20181;-67
2023/05/09 06:33:10;;;;;;;24.05;21.75;;;17.20;97.20;;;;;;2121047;23;20184;-67
2023/05/09 06:34:01;;;;;;;23.38;21.08;;;17.20;97.20;;;;;;2120608;23;20180;-67
2023/05/09 06:34:53;;;;;;;24.83;22.57;;;17.30;97.20;;;;;;2121120;23;20173;-67
2023/05/09 06:35:44;;;;;;;24.10;21.70;;;17.40;97.20;;;;;;2120979;23;20211;-67
2023/05/09 06:36:35;;;;;;;24.40;21.93;;;17.40;97.20;;;;;;2120967;23;20172;-67
2023/05/09 06:37:26;;;;;;;23.30;21.10;;;17.40;97.20;;;;;;2121100;23;20628;-67
2023/05/09 06:38:18;;;;;;;24.53;21.93;;;17.40;97.20;;;;;;2120939;23;20650;-67
2023/05/09 06:39:08;;;;;;;24.67;22.10;;;17.40;97.20;;;;;;2121119;23;20188;-68
2023/05/09 06:40:00;;;;;;;23.90;21.43;;;17.40;97.20;;;;;;2120237;23;20176;-68
2023/05/09 06:40:51;;;;;;;23.20;20.90;;;17.40;97.20;;;;;;2120821;23;20532;-67
2023/05/09 06:41:43;;;;;;;25.90;23.20;;;17.50;97.20;;;;;;2120595;23;20194;-68
2023/05/09 06:42:34;;;;;;;24.80;22.25;;;17.50;97.20;;;;;;2121079;23;20191;-67
2023/05/09 06:43:26;;;;;;;26.07;23.47;;;17.50;97.20;;;;;;2121127;23;20173;-68
2023/05/09 06:44:16;;;;;;;23.88;21.52;;;17.50;97.20;;;;;;2121069;23;20675;-67
2023/05/09 06:45:09;;;;;;;24.10;21.67;;;17.50;97.20;;;;;;2120931;23;20738;-67
2023/05/09 06:45:59;;;;;;;24.50;22.23;;;17.50;97.20;;;;;;2120694;23;20180;-67
2023/05/09 06:46:51;;;;;;;24.53;22.13;;;17.60;97.20;;;;;;2118439;23;20177;-67
2023/05/09 06:47:42;;;;;;;23.90;21.60;;;17.60;97.20;;;;;;2120801;23;20659;-68
2023/05/09 06:48:35;;;;;;;24.33;22.03;;;17.60;97.20;;;;;;2120899;23;20506;-67
2023/05/09 06:49:26;;;;;;;23.75;21.55;;;17.70;97.20;;;;;;2120914;23;20258;-67
2023/05/09 06:50:17;;;;;;;24.03;21.73;;;17.70;97.20;;;;;;2120160;23;20256;-68
2023/05/09 06:51:08;;;;;;;23.42;21.08;;;17.80;97.20;;;;;;2121068;23;20176;-67
2023/05/09 06:52:00;;;;;;;22.77;20.53;;;17.80;97.20;;;;;;2120798;23;20177;-68
2023/05/09 06:52:50;;;;;;;21.52;19.35;;;17.90;97.20;;;;;;2119718;23;20181;-66
2023/05/09 06:53:42;;;;;;;23.00;20.80;;;17.90;97.20;;;;;;2120697;23;20687;-67
2023/05/09 06:54:33;;;;;;;23.10;20.90;;;17.90;97.20;;;;;;2120847;23;20176;-68
2023/05/09 06:55:25;;;;;;;22.20;20.10;;;18.00;97.20;;;;;;2120731;23;20239;-67
2023/05/09 06:56:15;;;;;;;22.90;20.60;;;18.00;97.20;;;;;;2118390;23;20176;-67
2023/05/09 06:57:07;;;;;;;22.13;19.97;;;18.10;97.20;;;;;;2120713;23;20196;-67
2023/05/09 06:57:58;;;;;;;20.95;18.80;;;18.20;97.20;;;;;;2120652;23;20184;-67
2023/05/09 06:58:50;;;;;;;21.10;19.03;;;18.20;97.20;;;;;;2120707;23;20187;-67
2023/05/09 06:59:40;;;;;;;21.17;18.92;;;18.30;97.20;;;;;;2119887;23;20176;-68
2023/05/09 07:00:32;;;;;;;21.97;19.87;;;18.40;97.20;;;;;;2120722;23;20196;-68
2023/05/09 07:01:23;;;;;;;21.60;19.45;;;18.50;97.20;;;;;;2120238;23;20550;-67
2023/05/09 07:02:14;;;;;;;22.50;20.30;;;18.60;97.20;;;;;;2120076;23;20177;-68
2023/05/09 07:03:06;;;;;;;23.60;21.30;;;18.70;97.20;;;;;;2120273;23;20184;-68
2023/05/09 07:03:59;;;;;;;21.92;19.85;;;18.70;97.20;;;;;;2119992;23;20176;-67
2023/05/09 07:04:49;;;;;;;22.25;20.10;;;18.80;97.20;;;;;;2120080;23;20494;-68
2023/05/09 07:05:41;;;;;;;23.03;20.83;;;18.80;97.20;;;;;;2120731;23;20522;-68
2023/05/09 07:06:32;;;;;;;21.90;19.60;;;18.80;97.20;;;;;;2120911;23;20185;-67
2023/05/09 07:07:24;;;;;;;20.93;18.70;;;18.80;97.20;;;;;;2120615;23;20179;-67
2023/05/09 07:08:14;;;;;;;21.83;19.77;;;18.80;97.20;;;;;;2121062;23;20214;-67
2023/05/09 07:09:07;;;;;;;20.57;18.27;;;18.90;97.20;;;;;;2121090;23;20172;-67
2023/05/09 07:09:59;;;;;;;23.05;19.50;;;18.90;97.20;;;;;;2120025;23;20234;-67
2023/05/09 07:10:51;;;;;;;21.73;19.50;;;18.90;97.20;;;;;;2121003;23;20580;-67
2023/05/09 07:11:42;;;;;;;22.45;20.15;;;19.00;97.20;;;;;;2120490;23;20188;-67
2023/05/09 07:12:34;;;;;;;21.93;19.80;;;19.00;97.20;;;;;;2120832;23;20183;-67
2023/05/09 07:13:24;;;;;;;20.15;18.15;;;19.00;97.20;;;;;;2120951;23;20640;-67
2023/05/09 07:14:16;;;;;;;21.53;19.33;;;19.00;97.20;;;;;;2121124;23;20620;-67
2023/05/09 07:15:08;;;;;;;23.00;20.48;;;19.00;97.20;;;;;;2121080;23;20192;-67
2023/05/09 07:16:00;;;;;;;22.00;19.77;;;19.00;97.20;;;;;;2121127;23;20176;-67
2023/05/09 07:16:50;;;;;;;20.90;18.80;;;19.00;97.20;;;;;;2121081;23;20180;-67
2023/05/09 07:17:42;;;;;;;22.43;20.20;;;19.00;97.20;;;;;;2120264;23;20204;-67
2023/05/09 07:18:33;;;;;;;21.92;19.90;;;19.00;97.20;;;;;;2120309;23;20904;-65
2023/05/09 07:19:26;;;;;;;23.70;21.40;;;19.00;97.20;;;;;;2120913;23;20561;-66
2023/05/09 07:20:17;;;;;;;23.27;20.80;;;19.10;97.20;;;;;;2120293;23;20553;-66
2023/05/09 07:21:09;;;;;;;22.10;19.90;;;19.10;97.20;;;;;;2120763;23;20173;-67
2023/05/09 07:22:00;;;;;;;21.38;19.38;;;19.20;97.20;;;;;;2120752;23;20188;-68
2023/05/09 07:22:52;;;;;;;22.73;20.63;;;19.20;97.20;;;;;;2120770;23;20203;-67
2023/05/09 07:23:42;;;;;;;22.23;20.05;;;19.30;97.20;;;;;;2120843;23;20521;-67
2023/05/09 07:24:34;;;;;;;22.87;20.43;;;19.30;97.20;;;;;;2119084;23;20176;-67
2023/05/09 07:25:25;;;;;;;22.20;19.90;;;19.40;97.20;;;;;;2120540;23;20276;-67
2023/05/09 07:26:17;;;;;;;22.47;20.17;;;19.40;97.20;;;;;;2120934;23;20172;-67
2023/05/09 07:27:07;;;;;;;23.00;20.80;;;19.40;97.20;;;;;;2120792;23;20187;-66
2023/05/09 07:27:59;;;;;;;23.30;20.93;;;19.40;97.20;;;;;;2120462;23;20207;-66
2023/05/09 07:28:50;;;;;;;21.48;19.20;;;19.40;97.20;;;;;;2120276;23;20509;-67
2023/05/09 07:29:42;;;;;;;23.70;21.47;;;19.50;97.20;;;;;;2117604;23;20814;-67
2023/05/09 07:30:33;;;;;;;24.10;21.60;;;19.50;97.20;;;;;;2120132;23;20201;-67
2023/05/09 07:31:24;;;;;;;21.88;19.73;;;19.50;97.20;;;;;;2120060;23;20161;-67
2023/05/09 07:32:16;;;;;;;20.90;19.00;;;19.50;97.20;;;;;;2120441;23;20182;-67
2023/05/09 07:33:07;;;;;;;22.95;20.65;;;19.50;97.20;;;;;;2120567;23;20184;-67
2023/05/09 07:33:58;;;;;;;22.07;19.90;;;19.50;97.20;;;;;;2120530;23;20176;-67
2023/05/09 07:34:50;;;;;;;21.80;19.60;;;19.60;97.20;;;;;;2120780;23;20196;-66
2023/05/09 07:35:42;;;;;;;23.13;20.92;;;19.60;97.20;;;;;;2120762;23;20195;-67
2023/05/09 07:36:33;;;;;;;21.45;19.23;;;19.70;97.20;;;;;;2120655;23;20215;-67
2023/05/09 07:37:25;;;;;;;22.88;19.42;;;19.70;97.20;;;;;;2120818;23;20194;-67
2023/05/09 07:38:16;;;;;;;21.45;19.15;;;19.80;97.20;;;;;;2120779;23;20219;-67
2023/05/09 07:39:08;;;;;;;22.30;20.10;;;19.90;97.20;;;;;;2120616;23;20173;-67
2023/05/09 07:39:59;;;;;;;22.42;19.98;;;19.90;97.20;;;;;;2119583;23;20176;-67
2023/05/09 07:40:52;;;;;;;21.45;19.35;;;20.00;97.20;;;;;;2120829;23;20250;-67
2023/05/09 07:41:42;;;;;;;21.85;19.48;;;20.00;97.20;;;;;;2120448;23;20203;-67
2023/05/09 07:42:34;;;;;;;22.90;20.57;;;20.10;97.20;;;;;;2120690;23;20180;-68
2023/05/09 07:43:25;;;;;;;22.77;20.58;;;20.10;97.20;;;;;;2120652;23;20187;-67
2023/05/09 07:44:17;;;;;;;23.45;21.05;;;20.20;97.20;;;;;;2120281;23;20172;-67
2023/05/09 07:45:09;;;;;;;22.85;20.63;;;20.20;97.20;;;;;;2118256;23;20196;-67
2023/05/09 07:46:01;;;;;;;23.92;21.60;;;20.20;97.20;;;;;;2120090;23;20172;-67
2023/05/09 07:46:54;;;;;;;23.52;21.23;;;20.20;97.20;;;;;;2120064;23;20181;-67
2023/05/09 07:47:45;;;;;;;24.10;21.70;;;20.10;97.20;;;;;;2120729;23;20255;-67
2023/05/09 07:48:36;;;;;;;25.13;22.70;;;20.10;97.20;;;;;;2120563;23;20183;-66
2023/05/09 07:49:28;;;;;;;23.20;20.77;;;20.10;97.20;;;;;;2120197;23;20168;-67
2023/05/09 07:50:22;;;;;;;27.08;20.00;;;20.20;97.20;;;;;;2120112;23;20176;-66
2023/05/09 07:51:13;;;;;;;23.40;21.08;;;20.20;97.20;;;;;;2120674;23;20713;-67
2023/05/09 07:52:04;;;;;;;22.55;20.35;;;20.20;97.20;;;;;;2120791;23;20180;-67
2023/05/09 07:52:56;;;;;;;22.90;20.63;;;20.30;97.20;;;;;;2120906;23;20177;-66
2023/05/09 07:53:47;;;;;;;23.40;21.10;;;20.20;97.20;;;;;;2120886;23;20408;-66
2023/05/09 07:54:38;;;;;;;22.97;20.77;;;20.20;97.20;;;;;;2121277;23;20172;-67
2023/05/09 07:55:29;;;;;;;22.80;20.60;;;20.20;97.20;;;;;;2120858;23;20173;-66
2023/05/09 07:56:21;;;;;;;21.60;19.50;;;20.10;97.20;;;;;;2120741;23;20172;-66
2023/05/09 07:57:12;;;;;;;20.33;18.42;;;20.20;97.20;;;;;;2120898;23;20213;-67
2023/05/09 07:58:03;;;;;;;21.13;19.23;;;20.20;97.20;;;;;;2120766;23;20176;-66
2023/05/09 07:58:54;;;;;;;21.08;19.05;;;20.30;97.20;;;;;;2120916;23;20522;-66
2023/05/09 07:59:46;;;;;;;20.67;18.47;;;20.40;97.20;;;;;;2119713;23;20176;-66
2023/05/09 08:00:36;;;;;;;20.95;18.90;;;20.50;97.20;;;;;;2120814;23;20200;-66
2023/05/09 08:01:28;;;;;;;20.23;18.37;;;20.60;97.20;;;;;;2120614;23;20172;-67
2023/05/09 08:02:19;;;;;;;21.58;19.38;;;20.70;97.20;;;;;;2120742;23;20176;-66
2023/05/09 08:03:11;;;;;;;20.90;18.87;;;20.80;97.20;;;;;;2120936;23;20180;-66
2023/05/09 08:04:01;;;;;;;21.85;19.60;;;20.90;97.20;;;;;;2120717;23;20628;-66
2023/05/09 08:04:53;;;;;;;20.40;18.23;;;20.90;97.20;;;;;;2120907;23;20568;-66
2023/05/09 08:05:45;;;;;;;21.42;19.42;;;21.00;97.20;;;;;;2120698;23;20211;-66
2023/05/09 08:06:37;;;;;;;19.35;17.35;;;21.10;97.20;;;;;;2120715;23;20181;-67
2023/05/09 08:07:28;;;;;;;20.70;18.60;;;21.10;97.20;;;;;;2120275;23;20183;-67
2023/05/09 08:08:19;;;;;;;19.60;17.70;;;21.20;97.20;;;;;;2120073;23;20181;-67
2023/05/09 08:09:10;;;;;;;19.58;17.67;;;21.30;97.20;;;;;;2119015;23;20798;-67
2023/05/09 08:10:02;;;;;;;20.50;18.63;;;21.40;97.20;;;;;;2117862;23;20521;-66
2023/05/09 08:10:53;;;;;;;21.30;19.13;;;21.50;97.20;;;;;;2120683;23;20222;-66
2023/05/09 08:11:44;;;;;;;19.47;17.67;;;21.60;97.20;;;;;;2120848;23;20176;-66
2023/05/09 08:12:35;;;;;;;19.88;18.05;;;21.60;97.20;;;;;;2120749;23;20200;-66
2023/05/09 08:13:27;;;;;;;21.33;19.23;;;21.60;97.20;;;;;;2120814;23;20247;-67
2023/05/09 08:14:18;;;;;;;19.75;17.73;;;21.60;97.20;;;;;;2120670;23;20262;-66
2023/05/09 08:15:10;;;;;;;19.80;17.87;;;21.60;97.20;;;;;;2120652;23;20195;-67
2023/05/09 08:16:01;;;;;;;22.38;20.13;;;21.60;97.20;;;;;;2120808;23;20187;-66
2023/05/09 08:16:53;;;;;;;19.23;17.53;;;21.60;97.20;;;;;;2120811;23;20186;-66
2023/05/09 08:17:43;;;;;;;21.42;19.45;;;21.60;97.20;;;;;;2120832;23;20180;-66
2023/05/09 08:18:35;;;;;;;19.50;17.70;;;21.70;97.20;;;;;;2120835;23;20766;-66
2023/05/09 08:19:26;;;;;;;19.90;17.98;;;21.70;97.20;;;;;;2121447;23;20180;-66
2023/05/09 08:20:18;;;;;;;19.37;17.40;;;21.90;97.20;;;;;;2120855;23;20244;-67
2023/05/09 08:21:10;;;;;;;17.38;15.68;;;22.00;97.20;;;;;;2121242;23;20192;-67
2023/05/09 08:22:02;;;;;;;16.50;15.00;;;22.10;97.20;;;;;;2121535;23;20780;-66
2023/05/09 08:22:52;;;;;;;17.92;16.13;;;22.30;97.20;;;;;;2121436;23;20250;-66
2023/05/09 08:23:44;;;;;;;19.70;18.00;;;22.40;97.20;;;;;;2121446;23;20172;-66
2023/05/09 08:24:35;;;;;;;17.70;16.00;;;22.60;97.20;;;;;;2121230;23;20183;-66
2023/05/09 08:25:26;;;;;;;19.57;17.57;;;22.70;97.20;;;;;;2121502;23;20207;-66
2023/05/09 08:26:17;;;;;;;17.65;16.10;;;22.80;97.20;;;;;;2121490;23;20408;-66
2023/05/09 08:27:09;;;;;;;17.20;15.70;;;23.00;97.20;;;;;;2121404;23;20654;-67
2023/05/09 08:28:01;;;;;;;17.83;16.13;;;23.10;97.20;;;;;;2120967;23;20238;-67
2023/05/09 08:28:53;;;;;;;17.83;15.93;;;23.20;97.20;;;;;;2120501;23;20176;-67
2023/05/09 08:29:44;;;;;;;18.50;16.80;;;23.20;97.20;;;;;;2120006;23;20176;-67
2023/05/09 08:30:36;;;;;;;16.98;15.40;;;23.20;97.20;;;;;;2120573;23;20204;-67
2023/05/09 08:31:27;;;;;;;17.83;16.02;;;23.20;97.20;;;;;;2120588;23;20200;-67
2023/05/09 08:32:19;;;;;;;17.63;15.93;;;23.10;97.20;;;;;;2120882;23;20168;-67
2023/05/09 08:33:10;;;;;;;17.00;15.43;;;23.00;97.20;;;;;;2121556;23;20307;-67
2023/05/09 08:34:02;;;;;;;17.10;15.33;;;23.00;97.20;;;;;;2121748;23;20180;-66
2023/05/09 08:34:52;;;;;;;15.68;14.25;;;23.00;97.20;;;;;;2121474;23;20526;-67
2023/05/09 08:35:44;;;;;;;15.70;14.30;;;22.90;97.20;;;;;;2121744;23;20168;-68
2023/05/09 08:36:36;;;;;;;15.80;14.35;;;22.90;97.20;;;;;;2120390;23;20176;-68
2023/05/09 08:37:28;;;;;;;16.08;14.52;;;22.80;97.20;;;;;;2121408;23;20176;-68
2023/05/09 08:38:19;;;;;;;15.20;13.73;;;22.80;97.20;;;;;;2121435;23;20694;-69
2023/05/09 08:39:11;;;;;;;12.82;11.73;;;22.80;97.20;;;;;;2121182;23;20173;-68
2023/05/09 08:40:03;;;;;;;17.30;14.75;;;22.80;97.20;;;;;;2120511;23;20629;-68
2023/05/09 08:41:00;;;;;;;14.77;13.48;;;22.90;97.20;;;;;;2121393;23;20541;-69
2023/05/09 08:41:56;;;;;;;15.32;13.88;;;22.90;97.20;;;;;;2121397;23;20169;-69
2023/05/09 08:42:49;;;;;;;14.70;13.35;;;22.90;97.20;;;;;;2121387;23;20256;-69
2023/05/09 08:43:40;;;;;;;14.55;13.18;;;23.00;97.20;;;;;;2121322;23;20176;-68
2023/05/09 08:44:32;;;;;;;10.90;9.95;;;23.00;97.20;;;;;;2121067;23;20172;-69
2023/05/09 08:45:26;;;;;;;10.57;9.68;;;23.00;97.20;;;;;;2121353;23;20226;-68
2023/05/09 08:46:22;;;;;;;10.18;9.27;;;22.90;97.20;;;;;;2121409;23;20184;-68
2023/05/09 08:47:14;;;;;;;9.15;8.35;;;22.80;97.20;;;;;;2121251;23;20169;-68
2023/05/09 08:48:07;;;;;;;9.43;8.60;;;22.70;97.20;;;;;;2121384;23;20185;-68
2023/05/09 08:49:00;;;;;;;8.70;7.90;;;22.60;97.20;;;;;;2121411;23;20188;-68
2023/05/09 08:49:52;;;;;;;8.77;8.02;;;22.50;97.20;;;;;;2120530;23;20524;-68
2023/05/09 08:50:45;;;;;;;9.55;8.57;;;22.40;97.20;;;;;;2121381;23;20531;-68
2023/05/09 08:51:37;;;;;;;10.43;9.43;;;22.50;97.20;;;;;;2121194;23;20188;-68
2023/05/09 08:52:30;;;;;;;11.63;10.60;;;22.40;97.20;;;;;;2120494;23;20177;-69
2023/05/09 08:53:21;;;;;;;12.68;10.60;;;22.50;97.20;;;;;;2121521;23;20173;-69
2023/05/09 08:54:14;;;;;;;10.30;9.30;;;22.50;97.20;;;;;;2121453;23;20223;-68
2023/05/09 08:55:05;;;;;;;9.88;9.07;;;22.50;97.20;;;;;;2121534;23;20241;-69
2023/05/09 08:55:58;;;;;;;10.70;9.70;;;22.50;97.20;;;;;;2121567;23;20378;-69
2023/05/09 08:56:50;;;;;;;9.63;8.80;;;22.60;97.20;;;;;;2121435;23;20267;-69
2023/05/09 08:57:42;;;;;;;10.35;8.68;;;22.50;97.20;;;;;;2120931;23;20332;-69
2023/05/09 08:58:33;;;;;;;8.52;7.82;;;22.50;97.20;;;;;;2121179;23;20191;-68
2023/05/09 08:59:26;;;;;;;9.20;7.97;;;22.50;97.20;;;;;;2121531;23;20179;-69
2023/05/09 09:00:19;;;;;;;8.70;7.90;;;22.50;97.20;;;;;;2120659;23;20176;-69
2023/05/09 09:01:13;;;;;;;9.95;9.05;;;22.40;97.20;;;;;;2121129;23;20177;-69
2023/05/09 09:02:06;;;;;;;9.57;8.88;;;22.40;97.20;;;;;;2121540;23;20181;-69
2023/05/09 09:03:00;;;;;;;11.07;10.15;;;22.40;97.20;;;;;;2121268;23;20199;-68
2023/05/09 09:03:52;;;;;;;10.10;9.20;;;22.30;97.20;;;;;;2121354;23;20645;-69
2023/05/09 09:04:44;;;;;;;10.50;9.50;;;22.30;97.20;;;;;;2120587;23;20177;-69
2023/05/09 09:05:36;;;;;;;11.05;10.15;;;22.20;97.20;;;;;;2120443;23;20204;-69
2023/05/09 09:06:28;;;;;;;9.88;9.00;;;22.10;97.20;;;;;;2120732;23;20191;-69
2023/05/09 09:07:23;;;;;;;10.40;9.50;;;22.10;97.20;;;;;;2120705;23;20632;-69
2023/05/09 09:08:14;;;;;;;10.48;9.45;;;22.00;97.20;;;;;;2120946;23;20181;-69
2023/05/09 09:09:07;;;;;;;10.70;9.70;;;22.00;97.20;;;;;;2121449;23;20231;-69
2023/05/09 09:09:58;;;;;;;10.45;9.55;;;22.00;97.20;;;;;;2120522;23;20180;-69
2023/05/09 09:10:50;;;;;;;10.10;9.15;;;22.00;97.20;;;;;;2121008;23;20200;-69
2023/05/09 09:11:41;;;;;;;10.45;9.55;;;22.00;97.20;;;;;;2120454;23;20188;-69
2023/05/09 09:12:34;;;;;;;10.52;9.63;;;22.00;97.20;;;;;;2120545;23;20180;-69
2023/05/09 09:13:26;;;;;;;9.40;8.60;;;22.00;97.20;;;;;;2120875;23;20522;-69
2023/05/09 09:14:22;;;;;;;9.48;8.68;;;22.10;97.20;;;;;;2119194;23;20177;-69
2023/05/09 09:15:18;;;;;;;10.52;9.57;;;22.10;97.20;;;;;;2121507;23;20157;-68
2023/05/09 09:16:12;;;;;;;9.25;8.43;;;22.00;97.20;;;;;;2119805;23;20165;-68
2023/05/09 09:17:05;;;;;;;10.10;9.05;;;22.00;97.20;;;;;;2121258;23;20219;-68
2023/05/09 09:17:58;;;;;;;9.00;8.30;;;22.00;97.20;;;;;;2121330;23;20485;-68
2023/05/09 09:18:52;;;;;;;9.48;8.68;;;22.00;97.20;;;;;;2121145;23;20180;-67
2023/05/09 09:19:44;;;;;;;10.05;9.15;;;21.90;97.20;;;;;;2120278;23;20184;-68
2023/05/09 09:20:40;;;;;;;9.85;8.88;;;21.90;97.20;;;;;;2121261;23;20192;-69
2023/05/09 09:21:31;;;;;;;9.43;8.30;;;21.80;97.20;;;;;;2120977;23;20177;-68
2023/05/09 09:22:31;;;;;;;10.45;9.45;;;21.80;97.20;;;;;;2121375;23;20176;-69